Time;durP1;ratioP1;P1;durP2;ratioP2;P2;SDS_P1;SDS_P2;PMS_P1;PMS_P2;Temp;Humidity;BMP_temperature;BMP_pressure;BME280_temperature;BME280_humidity;BME280_pressure;Samples;Min_cycle;Max_cycle;Signal;HPM_P1;HPM_P2
2021/03/10 00:00:04;;;;;;;;;;;15.30;55.80;;;;;;5013226;28;19906;-57
2021/03/10 00:02:30;;;;;;;;;;;15.40;55.90;;;;;;5012819;28;20364;-56
2021/03/10 00:04:55;;;;;;;;;;;15.30;55.90;;;;;;5012236;28;19912;-56
2021/03/10 00:07:22;;;;;;;;;;;15.30;55.90;;;;;;5012903;28;19916;-57
2021/03/10 00:09:48;;;;;;;;;;;15.30;55.90;;;;;;5013020;28;19971;-56
2021/03/10 00:12:13;;;;;;;;;;;15.10;55.90;;;;;;5012526;28;19948;-56
2021/03/10 00:14:39;;;;;;;;;;;15.30;56.00;;;;;;5012401;28;19909;-57
2021/03/10 00:17:04;;;;;;;;;;;15.10;55.90;;;;;;5012410;28;19913;-57
2021/03/10 00:19:30;;;;;;;;;;;15.30;56.10;;;;;;5012495;28;20003;-56
2021/03/10 00:21:55;;;;;;;;;;;15.30;56.10;;;;;;5012643;28;20433;-55
2021/03/10 00:24:20;;;;;;;;;;;15.30;56.10;;;;;;5012416;28;19905;-56
2021/03/10 00:26:46;;;;;;;;;;;15.20;56.10;;;;;;5012746;28;19995;-56
2021/03/10 00:29:11;;;;;;;;;;;15.20;56.10;;;;;;5012560;28;19917;-56
2021/03/10 00:31:37;;;;;;;;;;;15.20;56.10;;;;;;5012375;28;19960;-57
2021/03/10 00:34:02;;;;;;;;;;;15.20;56.20;;;;;;5012511;28;19906;-57
2021/03/10 00:36:28;;;;;;;;;;;15.20;56.20;;;;;;5012159;28;19914;-56
2021/03/10 00:38:53;;;;;;;;;;;15.00;56.10;;;;;;5012403;28;19911;-56
2021/03/10 00:41:19;;;;;;;;;;;14.90;56.10;;;;;;5012636;28;20344;-57
2021/03/10 00:43:44;;;;;;;;;;;15.10;56.20;;;;;;5012337;28;20292;-57
2021/03/10 00:46:10;;;;;;;;;;;15.10;56.20;;;;;;5012434;28;19906;-57
2021/03/10 00:48:35;;;;;;;;;;;15.00;56.20;;;;;;5012776;28;20000;-58
2021/03/10 00:51:01;;;;;;;;;;;15.90;56.70;;;;;;5012104;28;19905;-57
2021/03/10 00:53:26;;;;;;;;;;;15.10;56.30;;;;;;5011993;28;20003;-57
2021/03/10 00:55:52;;;;;;;;;;;14.90;56.20;;;;;;5011939;28;19917;-57
2021/03/10 00:58:17;;;;;;;;;;;15.10;56.30;;;;;;5012257;28;19906;-56
2021/03/10 01:00:43;;;;;;;;;;;15.10;56.30;;;;;;5012129;28;19906;-57
2021/03/10 01:03:08;;;;;;;;;;;15.10;56.40;;;;;;5012131;28;19955;-56
2021/03/10 01:05:34;;;;;;;;;;;15.00;56.30;;;;;;5012031;28;19996;-57
2021/03/10 01:08:00;;;;;;;;;;;15.10;56.40;;;;;;4994432;28;19960;-56
2021/03/10 01:10:25;;;;;;;;;;;14.90;56.40;;;;;;5012178;28;20051;-55
2021/03/10 01:12:51;;;;;;;;;;;15.00;56.40;;;;;;5012100;28;19992;-57
2021/03/10 01:15:17;;;;;;;;;;;15.00;56.40;;;;;;5013193;28;19969;-58
2021/03/10 01:17:43;;;;;;;;;;;15.00;56.40;;;;;;5015827;28;19909;-55
2021/03/10 01:20:13;;;;;;;;;;;15.10;56.50;;;;;;4998041;28;19963;-57
2021/03/10 01:22:39;;;;;;;;;;;15.50;56.70;;;;;;5016126;28;20367;-56
2021/03/10 01:25:05;;;;;;;;;;;15.00;56.50;;;;;;5015836;28;19937;-56
2021/03/10 01:27:30;;;;;;;;;;;15.00;56.50;;;;;;5015717;28;19912;-56
2021/03/10 01:29:56;;;;;;;;;;;15.00;56.50;;;;;;5015662;28;20316;-56
2021/03/10 01:32:22;;;;;;;;;;;14.90;56.50;;;;;;5015849;28;19909;-56
2021/03/10 01:34:47;;;;;;;;;;;15.00;56.60;;;;;;5015744;28;19941;-57
2021/03/10 01:37:12;;;;;;;;;;;14.90;56.50;;;;;;5015627;28;19967;-56
2021/03/10 01:39:38;;;;;;;;;;;15.10;56.70;;;;;;5015471;28;19987;-56
2021/03/10 01:42:04;;;;;;;;;;;14.90;56.60;;;;;;5015438;28;19906;-58
2021/03/10 01:44:30;;;;;;;;;;;14.90;56.60;;;;;;5015440;28;19916;-57
2021/03/10 01:46:55;;;;;;;;;;;14.90;56.60;;;;;;5015169;28;19905;-57
2021/03/10 01:49:21;;;;;;;;;;;14.90;56.60;;;;;;5015210;28;19992;-56
2021/03/10 01:51:47;;;;;;;;;;;15.50;56.90;;;;;;5015430;28;19909;-55
2021/03/10 01:54:18;;;;;;;;;;;15.70;57.10;;;;;;5015359;28;19905;-57
2021/03/10 01:56:44;;;;;;;;;;;14.80;56.60;;;;;;4995215;28;19918;-56
2021/03/10 01:59:10;;;;;;;;;;;14.80;56.70;;;;;;4977900;28;19912;-55
2021/03/10 02:01:36;;;;;;;;;;;14.90;56.80;;;;;;4995616;28;20367;-56
2021/03/10 02:04:02;;;;;;;;;;;14.70;56.60;;;;;;4995392;28;19972;-57
2021/03/10 02:06:46;;;;;;;;;;;15.00;56.80;;;;;;4995245;28;20383;-56
2021/03/10 02:09:16;;;;;;;;;;;14.80;56.60;;;;;;4996188;28;20307;-56
2021/03/10 02:11:57;;;;;;;;;;;14.60;56.60;;;;;;4995200;28;19945;-55
2021/03/10 02:14:52;;;;;;;;;;;14.80;56.70;;;;;;4995276;28;19910;-57
2021/03/10 02:17:20;;;;;;;;;;;14.80;56.70;;;;;;4908744;28;19926;-56
2021/03/10 02:20:04;;;;;;;;;;;14.70;56.70;;;;;;4977679;28;19905;-57
2021/03/10 02:22:53;;;;;;;;;;;14.80;56.70;;;;;;4994851;28;19917;-57
2021/03/10 02:25:39;;;;;;;;;;;14.70;56.70;;;;;;4981809;28;20280;-57
2021/03/10 02:28:06;;;;;;;;;;;14.70;56.70;;;;;;4994255;28;19909;-56
2021/03/10 02:30:34;;;;;;;;;;;14.70;56.80;;;;;;4995074;28;20004;-56
2021/03/10 02:33:01;;;;;;;;;;;14.70;56.80;;;;;;4994754;28;19956;-57
2021/03/10 02:35:27;;;;;;;;;;;14.60;56.70;;;;;;4994887;28;19969;-57
2021/03/10 02:37:55;;;;;;;;;;;14.70;56.80;;;;;;4995003;28;19953;-57
2021/03/10 02:40:23;;;;;;;;;;;14.50;56.70;;;;;;4994733;28;19906;-56
2021/03/10 02:42:49;;;;;;;;;;;14.60;56.70;;;;;;4994841;28;20272;-56
2021/03/10 02:45:15;;;;;;;;;;;14.50;56.70;;;;;;4994613;28;19912;-56
2021/03/10 02:47:41;;;;;;;;;;;15.20;57.10;;;;;;4994606;28;19905;-56
2021/03/10 02:50:07;;;;;;;;;;;14.60;56.90;;;;;;4994593;28;19910;-57
2021/03/10 02:52:33;;;;;;;;;;;14.60;56.80;;;;;;4994433;28;19905;-57
2021/03/10 02:54:59;;;;;;;;;;;14.50;56.80;;;;;;4994548;28;19913;-56
2021/03/10 02:57:25;;;;;;;;;;;14.60;56.80;;;;;;4994553;28;20280;-56
2021/03/10 02:59:51;;;;;;;;;;;14.60;56.90;;;;;;4994687;28;20256;-57
2021/03/10 03:02:16;;;;;;;;;;;14.60;56.90;;;;;;4994383;28;19910;-56
2021/03/10 03:04:42;;;;;;;;;;;14.60;56.90;;;;;;4994263;28;19941;-56
2021/03/10 03:07:08;;;;;;;;;;;14.60;56.90;;;;;;4994231;28;19917;-56
2021/03/10 03:09:34;;;;;;;;;;;14.60;57.10;;;;;;4995246;28;19914;-56
2021/03/10 03:12:01;;;;;;;;;;;14.50;56.90;;;;;;4994293;28;19936;-55
2021/03/10 03:14:28;;;;;;;;;;;14.40;56.80;;;;;;4994034;28;19906;-56
2021/03/10 03:16:54;;;;;;;;;;;14.50;57.00;;;;;;4994256;28;19913;-57
2021/03/10 03:19:20;;;;;;;;;;;14.50;56.90;;;;;;4993974;28;19910;-56
2021/03/10 03:21:46;;;;;;;;;;;14.50;57.00;;;;;;4979756;28;19912;-56
2021/03/10 03:24:11;;;;;;;;;;;14.50;57.00;;;;;;5013562;28;19912;-57
2021/03/10 03:26:38;;;;;;;;;;;14.20;56.90;;;;;;5013680;28;20003;-54
2021/03/10 03:29:04;;;;;;;;;;;14.50;57.00;;;;;;5013471;28;19932;-56
2021/03/10 03:31:37;;;;;;;;;;;14.70;57.10;;;;;;5013644;28;19906;-56
2021/03/10 03:34:04;;;;;;;;;;;14.30;56.90;;;;;;5013535;28;19909;-55
2021/03/10 03:36:30;;;;;;;;;;;14.40;57.00;;;;;;5013581;28;19940;-55
2021/03/10 03:38:55;;;;;;;;;;;14.50;57.10;;;;;;5012526;28;19905;-56
2021/03/10 03:41:21;;;;;;;;;;;14.40;57.00;;;;;;5013206;28;19913;-56
2021/03/10 03:43:46;;;;;;;;;;;14.50;57.20;;;;;;5013473;28;20020;-56
2021/03/10 03:46:12;;;;;;;;;;;14.20;57.00;;;;;;5013051;28;20000;-56
2021/03/10 03:48:37;;;;;;;;;;;14.50;57.10;;;;;;5013243;28;19905;-55
2021/03/10 03:51:08;;;;;;;;;;;14.30;57.00;;;;;;4995293;28;20367;-56
2021/03/10 03:53:33;;;;;;;;;;;14.40;57.10;;;;;;5013224;28;20431;-57
2021/03/10 03:55:59;;;;;;;;;;;14.40;57.10;;;;;;5012896;28;20012;-56
2021/03/10 03:58:24;;;;;;;;;;;14.40;56.60;;;;;;5013209;28;20505;-55
2021/03/10 04:00:50;;;;;;;;;;;14.20;57.10;;;;;;5013158;28;20352;-56
2021/03/10 04:03:15;;;;;;;;;;;14.40;57.20;;;;;;5013123;28;20067;-56
2021/03/10 04:05:40;;;;;;;;;;;14.40;57.20;;;;;;5012983;28;19906;-56
2021/03/10 04:08:06;;;;;;;;;;;14.10;57.00;;;;;;5013263;28;19973;-57
2021/03/10 04:10:34;;;;;;;;;;;14.20;57.00;;;;;;4999828;28;20380;-57
2021/03/10 04:13:00;;;;;;;;;;;14.30;57.10;;;;;;4993362;28;20313;-56
2021/03/10 04:15:26;;;;;;;;;;;14.50;57.20;;;;;;4993081;28;20364;-56
2021/03/10 04:17:51;;;;;;;;;;;14.40;57.20;;;;;;4993369;28;19956;-57
2021/03/10 04:20:18;;;;;;;;;;;14.30;57.20;;;;;;4975529;28;20023;-56
2021/03/10 04:22:44;;;;;;;;;;;14.30;57.10;;;;;;4993269;28;19952;-56
2021/03/10 04:25:10;;;;;;;;;;;14.20;57.10;;;;;;4992915;28;19988;-56
2021/03/10 04:27:36;;;;;;;;;;;14.30;57.10;;;;;;4992987;28;19905;-56
2021/03/10 04:30:03;;;;;;;;;;;14.30;57.20;;;;;;4993007;28;20336;-56
2021/03/10 04:32:28;;;;;;;;;;;14.30;57.20;;;;;;4993146;28;19975;-56
2021/03/10 04:34:54;;;;;;;;;;;14.30;57.20;;;;;;4992934;28;20250;-57
2021/03/10 04:37:19;;;;;;;;;;;14.60;57.40;;;;;;4992882;28;19917;-56
2021/03/10 04:39:45;;;;;;;;;;;14.50;57.30;;;;;;4993021;28;19906;-56
2021/03/10 04:42:10;;;;;;;;;;;14.10;57.10;;;;;;4993047;28;20055;-57
2021/03/10 04:44:36;;;;;;;;;;;14.10;57.80;;;;;;4992861;28;19906;-56
2021/03/10 04:47:01;;;;;;;;;;;14.10;57.20;;;;;;4993005;28;19941;-56
2021/03/10 04:49:27;;;;;;;;;;;14.20;57.20;;;;;;4992974;28;19910;-55
2021/03/10 04:51:52;;;;;;;;;;;14.20;57.20;;;;;;4996383;28;19925;-57
2021/03/10 04:54:18;;;;;;;;;;;15.10;57.70;;;;;;4996910;28;19905;-56
2021/03/10 04:56:44;;;;;;;;;;;14.20;57.20;;;;;;4996597;28;19985;-56
2021/03/10 04:59:09;;;;;;;;;;;14.20;57.20;;;;;;4996364;28;19910;-55
2021/03/10 05:01:34;;;;;;;;;;;14.20;57.20;;;;;;4996500;28;19913;-56
2021/03/10 05:04:00;;;;;;;;;;;14.20;57.30;;;;;;4996396;28;20397;-57
2021/03/10 05:06:27;;;;;;;;;;;14.20;57.30;;;;;;4996905;28;19906;-57
2021/03/10 05:08:52;;;;;;;;;;;14.20;57.20;;;;;;4996475;28;20390;-54
2021/03/10 05:11:18;;;;;;;;;;;14.20;57.90;;;;;;4997508;28;19918;-56
2021/03/10 05:13:44;;;;;;;;;;;14.10;57.30;;;;;;4996379;28;20246;-56
2021/03/10 05:16:09;;;;;;;;;;;14.10;57.20;;;;;;4996568;28;19965;-55
2021/03/10 05:18:35;;;;;;;;;;;14.20;57.30;;;;;;4996112;28;20000;-55
2021/03/10 05:21:00;;;;;;;;;;;14.70;57.60;;;;;;4996598;28;19905;-56
2021/03/10 05:23:26;;;;;;;;;;;14.10;57.20;;;;;;4996432;28;20358;-56
2021/03/10 05:25:51;;;;;;;;;;;14.10;57.20;;;;;;4996207;28;20380;-57
2021/03/10 05:28:17;;;;;;;;;;;14.10;57.20;;;;;;4996155;28;19980;-57
2021/03/10 05:30:42;;;;;;;;;;;14.10;57.90;;;;;;4996006;28;19913;-56
2021/03/10 05:33:08;;;;;;;;;;;14.10;57.20;;;;;;4996320;28;19906;-57
2021/03/10 05:35:33;;;;;;;;;;;14.10;57.20;;;;;;4996028;28;19917;-56
2021/03/10 05:37:58;;;;;;;;;;;14.10;57.30;;;;;;4996230;28;19941;-56
2021/03/10 05:40:24;;;;;;;;;;;14.00;57.20;;;;;;4995710;28;20352;-57
2021/03/10 05:42:50;;;;;;;;;;;14.10;57.30;;;;;;4996066;28;19949;-57
2021/03/10 05:45:16;;;;;;;;;;;14.10;57.30;;;;;;4996046;28;19956;-57
2021/03/10 05:47:41;;;;;;;;;;;14.10;57.30;;;;;;4995514;28;20030;-55
2021/03/10 05:50:07;;;;;;;;;;;14.10;57.40;;;;;;4995756;28;19912;-56
2021/03/10 05:52:35;;;;;;;;;;;14.10;57.50;;;;;;4995915;28;20376;-59
2021/03/10 05:55:00;;;;;;;;;;;14.10;57.50;;;;;;4995653;28;19909;-56
2021/03/10 05:57:26;;;;;;;;;;;13.90;57.40;;;;;;4995626;28;19959;-56
2021/03/10 05:59:51;;;;;;;;;;;14.70;57.90;;;;;;4995677;28;19906;-58
2021/03/10 06:02:17;;;;;;;;;;;14.10;57.70;;;;;;4976621;28;19910;-55
2021/03/10 06:04:43;;;;;;;;;;;14.10;57.90;;;;;;4995209;28;19917;-55
2021/03/10 06:07:21;;;;;;;;;;;14.00;58.40;;;;;;4995583;28;20008;-56
2021/03/10 06:09:56;;;;;;;;;;;14.20;58.40;;;;;;4996484;28;19910;-56
2021/03/10 06:12:21;;;;;;;;;;;14.40;58.40;;;;;;4995293;28;19916;-54
2021/03/10 06:14:57;;;;;;;;;;;14.50;58.50;;;;;;4995088;28;20372;-56
2021/03/10 06:17:22;;;;;;;;;;;14.70;58.20;;;;;;4995331;28;20380;-55
2021/03/10 06:19:48;;;;;;;;;;;14.60;58.00;;;;;;4995010;28;19945;-56
2021/03/10 06:22:15;;;;;;;;;;;14.90;58.00;;;;;;4995048;28;19906;-55
2021/03/10 06:24:40;;;;;;;;;;;15.00;57.80;;;;;;4995193;28;20292;-53
2021/03/10 06:27:06;;;;;;;;;;;15.00;57.60;;;;;;4995172;28;19906;-55
2021/03/10 06:29:32;;;;;;;;;;;15.10;57.40;;;;;;4994679;28;19905;-54
2021/03/10 06:32:07;;;;;;;;;;;15.00;57.20;;;;;;4994894;28;20008;-55
2021/03/10 06:34:45;;;;;;;;;;;15.20;57.20;;;;;;4995097;28;20064;-56
2021/03/10 06:37:12;;;;;;;;;;;15.30;57.10;;;;;;4977420;28;19914;-55
2021/03/10 06:39:37;;;;;;;;;;;15.10;56.90;;;;;;4994973;28;19910;-54
2021/03/10 06:42:13;;;;;;;;;;;15.50;57.10;;;;;;4994963;28;19929;-56
2021/03/10 06:44:47;;;;;;;;;;;15.30;56.80;;;;;;4977010;28;20365;-55
2021/03/10 06:47:13;;;;;;;;;;;15.40;56.80;;;;;;4994475;28;20004;-56
2021/03/10 06:49:48;;;;;;;;;;;15.20;56.70;;;;;;4994602;28;20000;-55
2021/03/10 06:52:13;;;;;;;;;;;15.20;56.60;;;;;;4976738;28;19906;-55
2021/03/10 06:54:39;;;;;;;;;;;15.40;56.50;;;;;;4994803;28;19917;-55
2021/03/10 06:57:05;;;;;;;;;;;15.40;56.70;;;;;;4994438;28;19920;-55
2021/03/10 06:59:40;;;;;;;;;;;15.40;56.60;;;;;;4994212;28;20407;-55
2021/03/10 07:02:08;;;;;;;;;;;15.40;56.60;;;;;;4994599;28;20040;-55
2021/03/10 07:04:34;;;;;;;;;;;15.30;56.60;;;;;;4993034;28;19906;-56
2021/03/10 07:07:01;;;;;;;;;;;15.50;56.70;;;;;;4992804;28;19932;-55
2021/03/10 07:09:27;;;;;;;;;;;15.40;56.60;;;;;;4994332;28;19976;-57
2021/03/10 07:11:53;;;;;;;;;;;15.60;56.50;;;;;;4993772;28;19960;-57
2021/03/10 07:14:19;;;;;;;;;;;15.60;56.40;;;;;;4993251;28;19949;-57
2021/03/10 07:16:45;;;;;;;;;;;15.60;56.30;;;;;;4993172;28;20363;-56
2021/03/10 07:19:10;;;;;;;;;;;15.50;56.00;;;;;;4993762;28;19912;-55
2021/03/10 07:21:50;;;;;;;;;;;15.70;56.70;;;;;;5013195;28;19921;-56
2021/03/10 07:24:38;;;;;;;;;;;15.80;56.10;;;;;;5013914;28;19905;-57
2021/03/10 07:27:05;;;;;;;;;;;15.80;56.40;;;;;;5013673;28;19916;-56
2021/03/10 07:29:35;;;;;;;;;;;15.80;56.30;;;;;;5013536;28;19905;-56
2021/03/10 07:32:01;;;;;;;;;;;15.80;56.20;;;;;;5013189;28;19905;-57
2021/03/10 07:34:27;;;;;;;;;;;15.60;56.10;;;;;;5013546;28;19951;-57
2021/03/10 07:36:52;;;;;;;;;;;15.80;56.10;;;;;;4995757;28;19917;-57
2021/03/10 07:39:19;;;;;;;;;;;15.80;56.00;;;;;;5013460;28;20388;-57
2021/03/10 07:41:45;;;;;;;;;;;16.00;56.00;;;;;;5012992;28;19906;-55
2021/03/10 07:44:15;;;;;;;;;;;15.70;55.70;;;;;;5012989;28;19921;-55
2021/03/10 07:46:40;;;;;;;;;;;15.90;55.60;;;;;;5013051;28;19906;-54
2021/03/10 07:49:15;;;;;;;;;;;15.90;55.60;;;;;;5012926;28;19932;-59
2021/03/10 07:51:41;;;;;;;;;;;15.90;55.50;;;;;;5012860;28;19909;-53
2021/03/10 07:54:15;;;;;;;;;;;15.90;55.80;;;;;;5012868;28;20429;-56
2021/03/10 07:56:41;;;;;;;;;;;16.00;55.90;;;;;;4995042;28;20352;-56
2021/03/10 07:59:17;;;;;;;;;;;16.00;55.80;;;;;;5012732;28;19912;-55
2021/03/10 08:01:43;;;;;;;;;;;16.00;55.70;;;;;;5012743;28;19909;-55
2021/03/10 08:04:08;;;;;;;;;;;15.90;56.00;;;;;;5013169;28;20348;-55
2021/03/10 08:06:52;;;;;;;;;;;15.70;55.80;;;;;;5013102;28;20315;-57
2021/03/10 08:09:32;;;;;;;;;;;16.00;56.00;;;;;;5012935;28;20004;-56
2021/03/10 08:12:07;;;;;;;;;;;16.00;56.10;;;;;;4993117;28;20358;-55
2021/03/10 08:14:36;;;;;;;;;;;16.00;56.20;;;;;;4993302;28;19906;-56
2021/03/10 08:17:02;;;;;;;;;;;15.90;56.30;;;;;;4992840;28;19921;-57
2021/03/10 08:19:27;;;;;;;;;;;15.90;56.00;;;;;;4993220;28;19910;-56
2021/03/10 08:21:54;;;;;;;;;;;16.00;56.00;;;;;;4975358;28;19910;-56
2021/03/10 08:24:23;;;;;;;;;;;16.00;56.50;;;;;;4992861;28;20327;-56
2021/03/10 08:26:49;;;;;;;;;;;15.90;56.70;;;;;;4992795;28;20346;-55
2021/03/10 08:29:15;;;;;;;;;;;16.00;57.10;;;;;;4992970;28;19908;-55
2021/03/10 08:31:44;;;;;;;;;;;15.70;57.50;;;;;;4992866;28;20009;-53
2021/03/10 08:34:10;;;;;;;;;;;15.90;57.50;;;;;;4992665;28;19932;-56
2021/03/10 08:36:36;;;;;;;;;;;15.90;57.70;;;;;;4992683;28;19914;-53
2021/03/10 08:39:08;;;;;;;;;;;15.70;58.00;;;;;;4993115;28;19992;-54
2021/03/10 08:41:43;;;;;;;;;;;15.90;58.20;;;;;;5012053;28;19906;-55
2021/03/10 08:44:10;;;;;;;;;;;15.80;58.40;;;;;;5012323;28;20473;-55
2021/03/10 08:46:36;;;;;;;;;;;15.60;58.60;;;;;;5012335;28;19905;-56
2021/03/10 08:49:02;;;;;;;;;;;15.80;58.80;;;;;;5012566;28;19912;-56
2021/03/10 08:51:27;;;;;;;;;;;15.80;58.70;;;;;;5012457;28;19910;-56
2021/03/10 08:53:53;;;;;;;;;;;16.00;59.10;;;;;;5012133;28;19909;-55
2021/03/10 08:56:18;;;;;;;;;;;15.70;59.10;;;;;;5012023;28;19913;-55
2021/03/10 08:58:52;;;;;;;;;;;15.60;58.80;;;;;;5011969;28;19905;-56
2021/03/10 09:01:18;;;;;;;;;;;15.70;58.70;;;;;;5012250;28;20020;-56
2021/03/10 09:03:43;;;;;;;;;;;16.40;59.00;;;;;;5012217;28;20306;-53
2021/03/10 09:06:09;;;;;;;;;;;15.30;58.30;;;;;;4994177;28;19918;-54
2021/03/10 09:08:35;;;;;;;;;;;15.50;58.40;;;;;;5012031;28;20024;-55
2021/03/10 09:11:00;;;;;;;;;;;15.50;58.40;;;;;;4999284;28;20373;-54
2021/03/10 09:13:26;;;;;;;;;;;15.30;58.30;;;;;;4991998;28;19905;-53
2021/03/10 09:15:51;;;;;;;;;;;15.50;58.30;;;;;;4992386;28;19909;-53
2021/03/10 09:18:17;;;;;;;;;;;15.30;58.10;;;;;;4991795;28;19910;-56
2021/03/10 09:20:43;;;;;;;;;;;15.40;58.00;;;;;;4991226;28;19917;-56
2021/03/10 09:23:10;;;;;;;;;;;15.40;58.00;;;;;;4991173;28;20280;-55
2021/03/10 09:25:37;;;;;;;;;;;15.40;57.90;;;;;;4991015;28;19945;-56
2021/03/10 09:28:09;;;;;;;;;;;15.40;57.90;;;;;;4991236;28;20256;-55
2021/03/10 09:30:42;;;;;;;;;;;15.40;57.80;;;;;;4991046;28;19933;-55
2021/03/10 09:33:17;;;;;;;;;;;15.40;57.70;;;;;;4991187;28;19906;-56
2021/03/10 09:35:42;;;;;;;;;;;15.40;57.90;;;;;;4992301;28;19917;-57
2021/03/10 09:38:10;;;;;;;;;;;15.40;58.60;;;;;;4995904;28;19909;-56
2021/03/10 09:40:45;;;;;;;;;;;15.40;57.80;;;;;;4996061;28;20316;-56
2021/03/10 09:43:14;;;;;;;;;;;15.50;57.50;;;;;;4996006;28;19906;-55
2021/03/10 09:45:40;;;;;;;;;;;15.60;57.30;;;;;;4995958;28;19910;-56
2021/03/10 09:48:06;;;;;;;;;;;15.50;56.90;;;;;;4995559;28;19933;-54
2021/03/10 09:50:34;;;;;;;;;;;15.80;56.60;;;;;;4995514;28;20000;-56
2021/03/10 09:53:10;;;;;;;;;;;15.90;56.40;;;;;;4995635;28;19905;-56
2021/03/10 09:55:36;;;;;;;;;;;16.00;56.30;;;;;;4995395;28;19913;-54
2021/03/10 09:58:02;;;;;;;;;;;16.00;56.10;;;;;;4995521;28;19910;-56
2021/03/10 10:00:27;;;;;;;;;;;16.00;56.00;;;;;;4995774;28;20004;-56
2021/03/10 10:02:53;;;;;;;;;;;15.80;55.90;;;;;;4995737;28;20085;-55
2021/03/10 10:05:26;;;;;;;;;;;16.10;56.00;;;;;;4995506;28;19996;-56
2021/03/10 10:07:52;;;;;;;;;;;16.60;56.20;;;;;;4995420;28;20271;-56
2021/03/10 10:10:18;;;;;;;;;;;16.50;56.20;;;;;;4996571;28;20447;-56
2021/03/10 10:12:44;;;;;;;;;;;15.80;55.90;;;;;;4995184;28;20292;-56
2021/03/10 10:15:10;;;;;;;;;;;15.70;55.80;;;;;;4995227;28;19909;-56
2021/03/10 10:17:37;;;;;;;;;;;15.90;55.90;;;;;;4995122;28;19965;-56
2021/03/10 10:20:04;;;;;;;;;;;16.00;56.00;;;;;;4995208;28;19949;-56
2021/03/10 10:22:29;;;;;;;;;;;15.90;55.90;;;;;;4995060;28;19910;-53
2021/03/10 10:24:55;;;;;;;;;;;15.90;55.90;;;;;;4994824;28;19905;-52
2021/03/10 10:27:20;;;;;;;;;;;15.80;55.80;;;;;;4994752;28;19906;-55
2021/03/10 10:29:46;;;;;;;;;;;15.70;55.70;;;;;;4995210;28;20043;-56
2021/03/10 10:32:12;;;;;;;;;;;15.80;55.80;;;;;;4994909;28;20348;-55
2021/03/10 10:34:38;;;;;;;;;;;15.80;55.70;;;;;;4994796;28;20004;-55
2021/03/10 10:37:03;;;;;;;;;;;15.80;55.60;;;;;;4994638;28;20013;-56
2021/03/10 10:39:29;;;;;;;;;;;15.90;55.60;;;;;;4994728;28;19909;-53
2021/03/10 10:41:54;;;;;;;;;;;15.80;55.60;;;;;;4994873;28;20275;-55
2021/03/10 10:44:20;;;;;;;;;;;15.70;55.50;;;;;;4994585;28;20014;-56
2021/03/10 10:46:45;;;;;;;;;;;15.90;55.50;;;;;;4994747;28;19913;-55
2021/03/10 10:49:11;;;;;;;;;;;15.70;55.40;;;;;;4994374;28;20283;-55
2021/03/10 10:51:36;;;;;;;;;;;15.90;55.50;;;;;;4995030;28;20516;-56
2021/03/10 10:54:02;;;;;;;;;;;15.80;55.40;;;;;;4994868;28;19924;-55
2021/03/10 10:56:27;;;;;;;;;;;15.90;55.30;;;;;;4994612;28;19920;-55
2021/03/10 10:58:53;;;;;;;;;;;16.10;55.40;;;;;;4994386;28;20056;-55
2021/03/10 11:01:18;;;;;;;;;;;15.70;55.10;;;;;;4994415;28;20013;-54
2021/03/10 11:03:44;;;;;;;;;;;15.90;55.20;;;;;;4994362;28;20356;-55
2021/03/10 11:06:09;;;;;;;;;;;15.90;55.10;;;;;;4994266;28;20000;-56
2021/03/10 11:08:35;;;;;;;;;;;15.90;55.20;;;;;;4994075;28;20379;-55
2021/03/10 11:11:00;;;;;;;;;;;15.70;55.00;;;;;;4995260;28;19925;-56
2021/03/10 11:13:26;;;;;;;;;;;15.80;55.00;;;;;;4994439;28;20369;-56
2021/03/10 11:15:51;;;;;;;;;;;16.00;55.00;;;;;;4994112;28;19956;-56
2021/03/10 11:18:17;;;;;;;;;;;15.80;54.90;;;;;;4994084;28;19910;-55
2021/03/10 11:20:42;;;;;;;;;;;16.00;55.00;;;;;;4994143;28;19909;-56
2021/03/10 11:23:08;;;;;;;;;;;15.90;54.90;;;;;;4994338;28;19948;-56
2021/03/10 11:25:33;;;;;;;;;;;15.70;54.70;;;;;;4994257;28;19909;-56
2021/03/10 11:27:59;;;;;;;;;;;15.90;54.80;;;;;;4994018;28;19917;-56
2021/03/10 11:30:24;;;;;;;;;;;16.00;54.80;;;;;;4993991;28;19929;-55
2021/03/10 11:32:50;;;;;;;;;;;16.00;54.80;;;;;;4993748;28;20302;-56
2021/03/10 11:35:15;;;;;;;;;;;15.80;54.50;;;;;;4993943;28;19906;-54
2021/03/10 11:37:41;;;;;;;;;;;16.00;54.60;;;;;;4993664;28;20068;-53
2021/03/10 11:40:07;;;;;;;;;;;16.00;54.50;;;;;;4993735;28;19912;-55
2021/03/10 11:42:33;;;;;;;;;;;16.00;54.40;;;;;;4993346;28;20000;-55
2021/03/10 11:44:58;;;;;;;;;;;16.00;54.60;;;;;;4974827;28;20053;-55
2021/03/10 11:47:24;;;;;;;;;;;15.90;54.30;;;;;;4993570;28;20368;-55
2021/03/10 11:49:49;;;;;;;;;;;16.60;54.70;;;;;;4993698;28;19917;-55
2021/03/10 11:52:15;;;;;;;;;;;16.00;54.40;;;;;;4993628;28;19909;-55
2021/03/10 11:54:40;;;;;;;;;;;16.00;54.50;;;;;;4993331;28;20352;-50
2021/03/10 11:57:06;;;;;;;;;;;16.00;54.60;;;;;;4993618;28;20001;-55
2021/03/10 11:59:31;;;;;;;;;;;16.00;54.90;;;;;;4992806;28;19928;-57
2021/03/10 12:01:57;;;;;;;;;;;16.00;55.30;;;;;;4978678;28;20302;-57
2021/03/10 12:04:23;;;;;;;;;;;16.00;55.80;;;;;;4995230;28;19905;-54
2021/03/10 12:06:49;;;;;;;;;;;16.10;56.00;;;;;;4995187;28;19909;-56
2021/03/10 12:09:14;;;;;;;;;;;16.10;55.90;;;;;;5012454;28;19941;-56
2021/03/10 12:11:40;;;;;;;;;;;16.00;56.20;;;;;;4996612;28;19918;-56
2021/03/10 12:14:05;;;;;;;;;;;16.50;56.70;;;;;;4992156;28;19964;-57
2021/03/10 12:16:31;;;;;;;;;;;16.10;56.40;;;;;;4991993;28;20012;-56
2021/03/10 12:18:56;;;;;;;;;;;16.10;56.70;;;;;;4992139;28;19906;-58
2021/03/10 12:21:22;;;;;;;;;;;16.00;56.80;;;;;;4991954;28;19906;-57
2021/03/10 12:23:47;;;;;;;;;;;16.00;56.90;;;;;;4992127;28;19906;-57
2021/03/10 12:26:13;;;;;;;;;;;16.10;57.30;;;;;;4992661;28;19910;-56
2021/03/10 12:28:38;;;;;;;;;;;16.00;58.10;;;;;;4992913;28;19906;-57
2021/03/10 12:31:04;;;;;;;;;;;16.00;58.70;;;;;;4992879;28;19912;-57
2021/03/10 12:33:29;;;;;;;;;;;16.30;60.20;;;;;;4992903;28;19910;-57
2021/03/10 12:36:01;;;;;;;;;;;15.90;60.40;;;;;;4992645;28;19909;-57
2021/03/10 12:38:33;;;;;;;;;;;16.00;60.20;;;;;;4992682;28;19956;-57
2021/03/10 12:40:59;;;;;;;;;;;16.00;60.10;;;;;;4992997;28;20446;-57
2021/03/10 12:43:24;;;;;;;;;;;16.00;59.80;;;;;;4992735;28;20000;-57
2021/03/10 12:45:50;;;;;;;;;;;16.00;59.90;;;;;;4992936;28;19906;-56
2021/03/10 12:48:15;;;;;;;;;;;16.00;59.90;;;;;;4992833;28;19906;-56
2021/03/10 12:50:41;;;;;;;;;;;15.90;60.00;;;;;;4992580;28;19906;-57
2021/03/10 12:53:06;;;;;;;;;;;15.90;60.20;;;;;;4992613;28;19905;-56
2021/03/10 12:55:32;;;;;;;;;;;16.10;60.60;;;;;;4992915;28;19910;-57
2021/03/10 12:57:57;;;;;;;;;;;15.70;60.40;;;;;;4992602;28;19957;-55
2021/03/10 13:00:23;;;;;;;;;;;16.70;61.30;;;;;;4992592;28;20467;-56
2021/03/10 13:02:50;;;;;;;;;;;15.90;61.00;;;;;;4992642;28;19925;-57
2021/03/10 13:05:15;;;;;;;;;;;15.80;61.10;;;;;;4992294;28;19906;-57
2021/03/10 13:07:41;;;;;;;;;;;15.70;61.30;;;;;;4992454;28;19932;-58
2021/03/10 13:10:07;;;;;;;;;;;15.80;61.40;;;;;;4993771;28;19905;-56
2021/03/10 13:12:34;;;;;;;;;;;15.80;61.40;;;;;;4996512;28;19924;-56
2021/03/10 13:14:59;;;;;;;;;;;15.80;61.30;;;;;;4996720;28;20311;-56
2021/03/10 13:17:25;;;;;;;;;;;15.70;61.20;;;;;;4996287;28;19913;-57
2021/03/10 13:19:51;;;;;;;;;;;15.70;61.20;;;;;;4996286;28;19905;-57
2021/03/10 13:22:17;;;;;;;;;;;15.70;61.60;;;;;;4995601;28;19913;-56
2021/03/10 13:24:42;;;;;;;;;;;16.40;62.40;;;;;;4996293;28;19906;-55
2021/03/10 13:27:08;;;;;;;;;;;15.70;61.40;;;;;;4996290;28;19910;-57
2021/03/10 13:29:33;;;;;;;;;;;15.70;61.80;;;;;;4996359;28;19917;-57
2021/03/10 13:31:59;;;;;;;;;;;15.70;62.40;;;;;;4995275;28;19914;-55
2021/03/10 13:34:24;;;;;;;;;;;15.60;63.00;;;;;;4996078;28;20414;-56
2021/03/10 13:36:50;;;;;;;;;;;15.60;63.30;;;;;;4996036;28;19913;-57
2021/03/10 13:39:15;;;;;;;;;;;15.40;63.20;;;;;;4996029;28;19906;-57
2021/03/10 13:41:41;;;;;;;;;;;15.50;63.30;;;;;;4996024;28;20162;-57
2021/03/10 13:44:09;;;;;;;;;;;15.60;63.00;;;;;;4996075;28;19906;-57
2021/03/10 13:46:35;;;;;;;;;;;15.60;63.50;;;;;;4995742;28;19905;-56
2021/03/10 13:49:01;;;;;;;;;;;15.50;63.30;;;;;;4995583;28;19906;-57
2021/03/10 14:00:22;;;;;;;;;;;15.50;63.80;;;;;;5952230;23;20318;-56
2021/03/10 14:50:16;;;;;;;;;;;15.70;62.80;;;;;;5032700;23;20362;-54
2021/03/10 14:52:42;;;;;;;;;;;15.70;63.00;;;;;;4917713;29;20282;-55
2021/03/10 14:55:07;;;;;;;;;;;15.50;63.00;;;;;;4917624;29;19907;-55
2021/03/10 14:57:35;;;;;;;;;;;15.80;63.50;;;;;;4917825;29;19915;-54
2021/03/10 15:00:00;;;;;;;;;;;15.80;63.40;;;;;;4917573;29;19935;-56
2021/03/10 15:02:26;;;;;;;;;;;16.50;64.00;;;;;;4917792;29;19907;-56
2021/03/10 15:04:51;;;;;;;;;;;15.80;63.90;;;;;;4917732;29;20006;-56
2021/03/10 15:07:17;;;;;;;;;;;15.80;64.10;;;;;;4917455;29;20286;-54
2021/03/10 15:09:42;;;;;;;;;;;15.70;63.90;;;;;;4917149;29;20326;-54